Aérodrome :
LOGIN :

S'inscrire | Disclaimer

   EN    FR    IT 

 










Légende :    VFR   VFR Marginal   IFR   IFR Intensif   IFR Très Intensif
Visi : 
Plafond : 
>= 8 km
>= 3000ft
5 à 8 km
1000 à 3000 ft
1500m à 5 km
500 à 1000 ft
800 à 1500m
200 à 500 ft
< 800m
< 200 ft
Symboles :   Orages  Brouillard  Fortes neiges  Fortes précipitations  Vent > 20 kt
SIGMETs :   Divers  Orages  Givrage  Turbulence  Onde Orograph.  Cendres Volcan.







- Altitude de l'aérodrome : 157 ft
- Code IATA : LIL
- Voir les cartes d'approche


LFQQ - Lille Lesquin

DERNIER METAR :
  • 180930Z AUTO 05010KT CAVOK 04/M01 Q1026 NOSIG

METARs EXPIRÉS :
  • 180900Z AUTO 05012KT CAVOK 03/M01 Q1026 NOSIG
  • 180830Z AUTO 04011KT CAVOK 03/M01 Q1027 NOSIG
  • 180800Z AUTO 05009KT CAVOK 02/M02 Q1027 NOSIG
  • 180730Z AUTO 05008KT CAVOK 02/M02 Q1026 NOSIG
  • 180700Z AUTO 05010KT CAVOK 02/M02 Q1026 NOSIG

TAF TAF LFQQ
Valide du 18 à 06h jusqu'au 19 à 12h UTC


180500Z 1806/1912 06010KT CAVOK
BECMG 1904/1906 OVC007
BECMG 1908/1911 BKN020
ATIS : +33 3 20 16 19 54
Pas de NOTAMs connus pour ce terrain.



MET'MAP, la Météo Aéronautique d'un coup d'oeil ! - Copyright ORBIFLY Décembre 2007 - Disclaimer

ORBIFLY MET'MAP TEAM :

Programmation & Développement : Alexandra Zaïnal
Conception & Développement : Baudouin d'Aumeries
Co-Programmation & Développement : Marc-Olivier Méhu
Soutien technique & logistique : Manuel Goepfert

Contact : metmap@orbifly.com




SOURCES & CREDITS :

   NOAA